createdAt,value
2018-12-16T00:00:59.544Z,23.17
2018-12-16T00:03:42.722Z,22.67
2018-12-16T00:06:25.790Z,21.73
2018-12-16T00:09:08.093Z,21.83
2018-12-16T00:11:51.489Z,22.23
2018-12-16T00:14:32.807Z,20.13
2018-12-16T00:17:15.010Z,21.20
2018-12-16T00:19:56.449Z,20.90
2018-12-16T00:22:38.577Z,20.70
2018-12-16T00:25:21.484Z,21.00
2018-12-16T00:28:03.440Z,21.97
2018-12-16T00:30:44.721Z,20.60
2018-12-16T00:33:26.411Z,20.73
2018-12-16T00:36:08.136Z,22.20
2018-12-16T00:38:56.171Z,21.07
2018-12-16T00:41:37.909Z,21.43
2018-12-16T00:44:19.814Z,21.73
2018-12-16T00:47:02.289Z,20.77
2018-12-16T00:49:44.475Z,18.43
2018-12-16T00:52:26.112Z,20.13
2018-12-16T00:55:08.521Z,19.80
2018-12-16T00:57:50.365Z,20.67
2018-12-16T01:00:32.126Z,19.40
2018-12-16T01:03:13.894Z,18.77
2018-12-16T01:05:57.078Z,19.50
2018-12-16T01:08:38.923Z,19.70
2018-12-16T01:11:20.609Z,19.37
2018-12-16T01:14:04.072Z,19.80
2018-12-16T01:16:45.696Z,18.93
2018-12-16T01:19:27.551Z,18.70
2018-12-16T01:22:09.396Z,17.90
2018-12-16T01:24:50.769Z,16.90
2018-12-16T01:27:32.602Z,18.03
2018-12-16T01:30:14.199Z,17.80
2018-12-16T01:32:56.271Z,17.30
2018-12-16T01:35:37.949Z,17.90
2018-12-16T01:38:19.642Z,16.30
2018-12-16T01:41:02.092Z,17.50
2018-12-16T01:43:43.774Z,17.00
2018-12-16T01:46:25.433Z,18.23
2018-12-16T01:49:07.020Z,17.63
2018-12-16T01:51:48.403Z,17.60
2018-12-16T01:54:32.079Z,17.77
2018-12-16T01:57:13.936Z,17.33
2018-12-16T01:59:55.822Z,16.73
2018-12-16T02:02:37.632Z,16.37
2018-12-16T02:05:19.353Z,17.90
2018-12-16T02:08:00.803Z,16.33
2018-12-16T02:10:42.499Z,16.73
2018-12-16T02:13:23.708Z,16.50
2018-12-16T02:16:05.251Z,16.73
2018-12-16T02:18:47.095Z,17.30
2018-12-16T02:21:28.747Z,18.07
2018-12-16T02:24:10.789Z,16.50
2018-12-16T02:26:52.440Z,18.97
2018-12-16T02:29:33.584Z,17.37
2018-12-16T02:32:15.149Z,17.00
2018-12-16T02:34:56.761Z,18.13
2018-12-16T02:37:38.363Z,17.77
2018-12-16T02:40:20.014Z,17.37
2018-12-16T02:43:01.231Z,18.27
2018-12-16T02:45:44.367Z,17.80
2018-12-16T02:48:25.972Z,17.20
2018-12-16T02:51:07.794Z,17.73
2018-12-16T02:53:49.387Z,17.57
2018-12-16T02:56:31.495Z,18.30
2018-12-16T02:59:12.683Z,17.27
2018-12-16T03:01:54.284Z,17.60
2018-12-16T03:04:35.961Z,17.37
2018-12-16T03:07:17.222Z,17.63
2018-12-16T03:09:58.402Z,17.70
2018-12-16T03:12:39.987Z,17.93
2018-12-16T03:15:21.624Z,17.27
2018-12-16T03:18:03.852Z,18.10
2018-12-16T03:20:45.355Z,17.77
2018-12-16T03:23:27.494Z,17.27
2018-12-16T03:26:09.043Z,16.83
2018-12-16T03:28:50.715Z,17.83
2018-12-16T03:31:32.150Z,18.30
2018-12-16T03:34:13.812Z,16.73
2018-12-16T03:36:56.380Z,17.70
2018-12-16T03:39:37.958Z,17.50
2018-12-16T03:42:21.731Z,19.07
2018-12-16T03:45:04.080Z,16.27
2018-12-16T03:47:45.832Z,17.27
2018-12-16T03:50:27.048Z,16.60
2018-12-16T03:53:08.357Z,18.30
2018-12-16T03:55:50.130Z,18.23
2018-12-16T03:58:31.436Z,18.07
2018-12-16T04:01:13.220Z,18.80
2018-12-16T04:03:54.663Z,18.57
2018-12-16T04:06:36.353Z,17.83
2018-12-16T04:09:18.069Z,18.23
2018-12-16T04:11:59.846Z,20.17
2018-12-16T04:14:41.508Z,19.63
2018-12-16T04:17:23.203Z,18.77
2018-12-16T04:20:06.055Z,19.97
2018-12-16T04:22:47.343Z,19.30
2018-12-16T04:25:29.063Z,18.67
2018-12-16T04:28:11.435Z,19.30
2018-12-16T04:30:53.799Z,19.30
2018-12-16T04:33:34.985Z,18.47
2018-12-16T04:36:17.126Z,17.37
2018-12-16T04:38:58.669Z,16.00
2018-12-16T04:41:39.805Z,16.07
2018-12-16T04:44:21.043Z,15.63
2018-12-16T04:47:02.904Z,15.43
2018-12-16T04:49:44.567Z,14.63
2018-12-16T04:52:26.644Z,15.17
2018-12-16T04:55:08.209Z,15.37
2018-12-16T04:57:49.748Z,15.70
2018-12-16T05:00:31.716Z,15.30
2018-12-16T05:03:14.840Z,15.23
2018-12-16T05:05:55.992Z,14.87
2018-12-16T05:08:37.712Z,16.53
2018-12-16T05:11:18.848Z,14.13
2018-12-16T05:14:00.168Z,16.00
2018-12-16T05:16:41.861Z,16.53
2018-12-16T05:19:23.102Z,16.70
2018-12-16T05:22:04.656Z,16.00
2018-12-16T05:24:46.238Z,16.17
2018-12-16T05:27:28.487Z,15.10
2018-12-16T05:30:10.699Z,14.90
2018-12-16T05:32:52.791Z,16.57
2018-12-16T05:35:35.110Z,15.50
2018-12-16T05:38:16.785Z,15.23
2018-12-16T05:40:58.022Z,16.70
2018-12-16T05:43:39.657Z,16.10
2018-12-16T05:46:21.350Z,16.97
2018-12-16T05:49:02.684Z,15.20
2018-12-16T05:51:44.399Z,16.10
2018-12-16T05:54:26.160Z,16.47
2018-12-16T05:57:07.815Z,16.00
2018-12-16T05:59:50.085Z,16.30
2018-12-16T06:02:31.310Z,16.83
2018-12-16T06:05:12.683Z,19.30
2018-12-16T06:07:54.295Z,17.23
2018-12-16T06:10:35.515Z,15.43
2018-12-16T06:13:17.004Z,15.97
2018-12-16T06:15:58.676Z,14.67
2018-12-16T06:18:40.113Z,15.37
2018-12-16T06:21:21.786Z,15.20
2018-12-16T06:24:03.146Z,15.03
2018-12-16T06:26:45.286Z,14.80
2018-12-16T06:29:26.580Z,14.63
2018-12-16T06:32:08.768Z,14.47
2018-12-16T06:34:51.292Z,14.33
2018-12-16T06:37:32.843Z,14.33
2018-12-16T06:40:14.870Z,14.07
2018-12-16T06:42:56.071Z,13.20
2018-12-16T06:45:37.606Z,13.60
2018-12-16T06:48:18.872Z,12.77
2018-12-16T06:51:00.485Z,12.90
2018-12-16T06:53:42.098Z,13.43
2018-12-16T06:56:23.464Z,13.10
2018-12-16T06:59:06.494Z,13.17
2018-12-16T07:01:47.862Z,13.03
2018-12-16T07:04:29.290Z,13.87
2018-12-16T07:07:10.644Z,13.50
2018-12-16T07:09:52.055Z,14.30
2018-12-16T07:12:33.360Z,13.47
2018-12-16T07:15:15.788Z,12.17
2018-12-16T07:17:57.026Z,11.97
2018-12-16T07:20:38.993Z,11.67
2018-12-16T07:23:21.067Z,12.83
2018-12-16T07:26:02.737Z,11.83
2018-12-16T07:28:44.788Z,11.60
2018-12-16T07:31:26.085Z,11.70
2018-12-16T07:34:07.706Z,10.93
2018-12-16T07:36:50.095Z,12.27
2018-12-16T07:39:32.028Z,11.30
2018-12-16T07:42:14.313Z,11.43
2018-12-16T07:44:55.988Z,10.87
2018-12-16T07:47:37.289Z,10.43
2018-12-16T07:50:18.769Z,10.67
2018-12-16T07:53:00.130Z,11.17
2018-12-16T07:55:42.170Z,10.90
2018-12-16T07:58:23.584Z,10.00
2018-12-16T08:01:06.516Z,10.60
2018-12-16T08:03:47.893Z,10.20
2018-12-16T08:06:30.126Z,10.53
2018-12-16T08:09:11.529Z,10.27
2018-12-16T08:11:55.371Z,9.43
2018-12-16T08:14:37.049Z,10.80
2018-12-16T08:17:18.777Z,10.80
2018-12-16T08:20:00.006Z,10.90
2018-12-16T08:22:41.342Z,10.97
2018-12-16T08:25:23.745Z,10.03
2018-12-16T08:28:05.810Z,11.50
2018-12-16T08:30:47.128Z,11.13
2018-12-16T08:33:28.589Z,11.00
2018-12-16T08:36:12.559Z,9.43
2018-12-16T08:38:55.083Z,10.70
2018-12-16T08:41:37.169Z,12.10
2018-12-16T08:44:18.995Z,11.33
2018-12-16T08:47:00.642Z,11.67
2018-12-16T08:49:42.149Z,11.47
2018-12-16T08:52:23.395Z,12.13
2018-12-16T08:55:05.433Z,11.97
2018-12-16T08:57:47.060Z,10.87
2018-12-16T09:00:28.560Z,11.90
2018-12-16T09:03:11.260Z,11.87
2018-12-16T09:05:52.540Z,12.97
2018-12-16T09:08:34.501Z,12.67
2018-12-16T09:11:15.885Z,12.27
2018-12-16T09:13:57.059Z,12.50
2018-12-16T09:16:38.276Z,11.93
2018-12-16T09:19:20.013Z,12.30
2018-12-16T09:22:01.730Z,12.87
2018-12-16T09:24:44.365Z,11.90
2018-12-16T09:27:26.619Z,12.27
2018-12-16T09:30:12.062Z,12.90
2018-12-16T09:32:53.450Z,13.30
2018-12-16T09:35:35.201Z,11.50
2018-12-16T09:38:16.673Z,12.97
2018-12-16T09:40:58.177Z,12.07
2018-12-16T09:43:39.630Z,12.50
2018-12-16T09:46:21.180Z,11.87
2018-12-16T09:49:02.577Z,12.20
2018-12-16T09:51:44.692Z,13.37
2018-12-16T09:54:26.421Z,11.73
2018-12-16T09:57:08.051Z,12.03
2018-12-16T09:59:51.143Z,11.87
2018-12-16T10:02:32.407Z,10.27
2018-12-16T10:05:15.614Z,11.07
2018-12-16T10:07:56.968Z,10.60
2018-12-16T10:10:38.407Z,12.10
2018-12-16T10:13:20.421Z,10.63
2018-12-16T10:16:02.109Z,12.20
2018-12-16T10:18:43.464Z,10.83
2018-12-16T10:21:24.933Z,10.67
2018-12-16T10:24:07.156Z,11.73
2018-12-16T10:26:48.641Z,11.17
2018-12-16T10:29:29.886Z,11.43
2018-12-16T10:32:11.389Z,12.23
2018-12-16T10:34:52.503Z,11.70
2018-12-16T10:37:34.344Z,11.40
2018-12-16T10:40:15.565Z,12.07
2018-12-16T10:42:57.803Z,11.00
2018-12-16T10:45:39.622Z,12.47
2018-12-16T10:48:21.268Z,11.30
2018-12-16T10:51:02.945Z,12.37
2018-12-16T10:53:44.105Z,12.30
2018-12-16T10:56:25.421Z,11.40
2018-12-16T10:59:07.509Z,11.67
2018-12-16T11:01:49.637Z,11.83
2018-12-16T11:04:31.970Z,11.77
2018-12-16T11:07:13.903Z,11.18
2018-12-16T11:09:55.599Z,10.98
2018-12-16T11:12:37.923Z,10.38
2018-12-16T11:15:19.987Z,11.28
2018-12-16T11:18:01.731Z,12.82
2018-12-16T11:20:43.203Z,12.40
2018-12-16T11:23:25.101Z,12.37
2018-12-16T11:26:08.702Z,13.53
2018-12-16T11:28:50.501Z,12.60
2018-12-16T11:31:32.579Z,11.28
2018-12-16T11:34:16.092Z,12.47
2018-12-16T11:36:58.699Z,12.45
2018-12-16T11:39:40.367Z,12.35
2018-12-16T11:42:23.011Z,11.83
2018-12-16T11:45:06.969Z,11.83
2018-12-16T11:47:49.937Z,12.78
2018-12-16T11:50:33.029Z,13.53
2018-12-16T11:55:58.109Z,13.93
2018-12-16T11:58:40.803Z,12.98
2018-12-16T12:01:23.243Z,12.18
2018-12-16T12:04:06.348Z,13.32
2018-12-16T12:06:47.768Z,13.13
2018-12-16T12:09:29.601Z,14.90
2018-12-16T12:12:11.336Z,13.90
2018-12-16T12:14:53.030Z,13.33
2018-12-16T12:17:35.390Z,13.43
2018-12-16T12:20:17.134Z,13.30
2018-12-16T12:22:58.709Z,13.20
2018-12-16T12:25:40.866Z,14.43
2018-12-16T12:28:25.968Z,13.77
2018-12-16T12:31:08.012Z,14.00
2018-12-16T12:33:50.103Z,13.13
2018-12-16T12:36:32.816Z,13.40
2018-12-16T12:39:14.005Z,12.37
2018-12-16T12:41:55.378Z,12.70
2018-12-16T12:44:37.572Z,12.87
2018-12-16T12:47:19.356Z,12.13
2018-12-16T12:50:01.021Z,13.17
2018-12-16T12:52:42.203Z,13.10
2018-12-16T12:55:26.948Z,13.10
2018-12-16T12:58:07.902Z,13.20
2018-12-16T13:00:49.212Z,12.87
2018-12-16T13:03:32.181Z,12.73
2018-12-16T13:06:13.837Z,12.93
2018-12-16T13:08:55.286Z,13.22
2018-12-16T13:11:37.160Z,13.10
2018-12-16T13:14:18.796Z,13.70
2018-12-16T13:17:00.115Z,13.00
2018-12-16T13:19:41.972Z,13.23
2018-12-16T13:22:24.352Z,13.37
2018-12-16T13:25:22.809Z,13.27
2018-12-16T13:28:04.763Z,13.27
2018-12-16T13:30:46.038Z,12.90
2018-12-16T13:33:28.408Z,12.80
2018-12-16T13:36:11.927Z,12.80
2018-12-16T13:38:53.710Z,13.57
2018-12-16T13:41:35.041Z,13.83
2018-12-16T13:44:16.706Z,14.13
2018-12-16T13:46:59.614Z,13.57
2018-12-16T13:49:41.366Z,13.17
2018-12-16T13:52:22.873Z,13.50
2018-12-16T13:55:06.110Z,13.50
2018-12-16T13:57:49.141Z,14.40
2018-12-16T14:00:31.199Z,13.33
2018-12-16T14:03:12.995Z,13.80
2018-12-16T14:05:54.603Z,13.73
2018-12-16T14:08:35.991Z,15.23
2018-12-16T14:11:18.803Z,14.40
2018-12-16T14:14:00.396Z,14.57
2018-12-16T14:16:42.088Z,15.33
2018-12-16T14:19:23.556Z,15.00
2018-12-16T14:22:05.362Z,14.60
2018-12-16T14:24:46.876Z,14.83
2018-12-16T14:27:29.503Z,14.20
2018-12-16T14:30:12.653Z,14.33
2018-12-16T14:32:53.977Z,15.50
2018-12-16T14:35:35.566Z,14.73
2018-12-16T14:38:17.808Z,15.43
2018-12-16T14:40:59.864Z,14.37
2018-12-16T14:43:41.461Z,14.63
2018-12-16T14:46:23.146Z,15.27
2018-12-16T14:49:04.870Z,14.23
2018-12-16T14:51:46.441Z,13.90
2018-12-16T14:54:28.221Z,15.87
2018-12-16T14:57:10.016Z,14.87
2018-12-16T14:59:52.218Z,15.07
2018-12-16T15:02:34.012Z,15.43
2018-12-16T15:05:15.852Z,15.03
2018-12-16T15:07:57.551Z,14.53
2018-12-16T15:10:39.596Z,15.47
2018-12-16T15:13:21.557Z,14.70
2018-12-16T15:16:03.739Z,15.27
2018-12-16T15:18:45.619Z,14.00
2018-12-16T15:21:27.238Z,15.20
2018-12-16T15:24:09.296Z,15.17
2018-12-16T15:26:52.574Z,16.37
2018-12-16T15:29:34.703Z,15.93
2018-12-16T15:32:17.148Z,15.83
2018-12-16T15:34:58.809Z,15.57
2018-12-16T15:37:40.400Z,15.63
2018-12-16T15:40:22.230Z,15.90
2018-12-16T15:43:04.453Z,15.90
2018-12-16T15:45:45.639Z,15.83
2018-12-16T15:48:27.584Z,15.87
2018-12-16T15:51:09.474Z,16.80
2018-12-16T15:53:51.998Z,15.70
2018-12-16T15:56:33.940Z,16.27
2018-12-16T15:59:15.867Z,15.90
2018-12-16T16:01:57.175Z,15.77
2018-12-16T16:04:39.252Z,16.00
2018-12-16T16:07:20.868Z,16.57
2018-12-16T16:10:02.143Z,16.73
2018-12-16T16:12:43.620Z,16.93
2018-12-16T16:15:26.038Z,16.53
2018-12-16T16:18:07.675Z,16.60
2018-12-16T16:20:49.192Z,17.13
2018-12-16T16:23:30.428Z,16.03
2018-12-16T16:26:16.156Z,15.93
2018-12-16T16:28:56.520Z,17.63
2018-12-16T16:31:38.010Z,17.00
2018-12-16T16:34:20.261Z,18.50
2018-12-16T16:37:01.856Z,17.50
2018-12-16T16:39:43.509Z,18.30
2018-12-16T16:42:24.764Z,17.03
2018-12-16T16:45:07.554Z,18.17
2018-12-16T16:47:50.334Z,18.53
2018-12-16T16:50:32.002Z,18.10
2018-12-16T16:53:13.273Z,17.80
2018-12-16T16:55:54.889Z,17.77
2018-12-16T16:58:36.327Z,18.00
2018-12-16T17:01:18.184Z,19.27
2018-12-16T17:03:59.829Z,18.50
2018-12-16T17:06:41.791Z,18.83
2018-12-16T17:09:23.581Z,18.97
2018-12-16T17:12:06.193Z,18.37
2018-12-16T17:14:49.696Z,18.10
2018-12-16T17:17:31.775Z,18.97
2018-12-16T17:20:13.267Z,18.20
2018-12-16T17:22:54.890Z,18.33
2018-12-16T17:25:36.864Z,19.70
2018-12-16T17:28:19.003Z,17.50
2018-12-16T17:31:02.383Z,17.63
2018-12-16T17:33:43.961Z,17.13
2018-12-16T17:36:25.511Z,18.50
2018-12-16T17:39:09.616Z,18.50
2018-12-16T17:41:50.852Z,18.30
2018-12-16T17:44:32.574Z,17.90
2018-12-16T17:47:14.390Z,18.00
2018-12-16T17:49:56.059Z,18.30
2018-12-16T17:52:37.375Z,19.87
2018-12-16T17:55:19.819Z,18.83
2018-12-16T17:58:02.586Z,17.70
2018-12-16T18:00:47.337Z,18.87
2018-12-16T18:03:29.735Z,17.80
2018-12-16T18:09:10.460Z,18.97
2018-12-16T18:11:53.564Z,17.70
2018-12-16T18:14:34.987Z,18.20
2018-12-16T18:17:16.890Z,17.37
2018-12-16T18:19:58.739Z,17.33
2018-12-16T18:22:39.952Z,18.13
2018-12-16T18:25:21.362Z,18.90
2018-12-16T18:28:04.793Z,18.97
2018-12-16T18:30:48.158Z,19.20
2018-12-16T18:33:30.337Z,19.37
2018-12-16T18:36:12.133Z,18.43
2018-12-16T18:38:54.001Z,19.27
2018-12-16T18:41:35.625Z,19.40
2018-12-16T18:44:17.471Z,18.83
2018-12-16T18:46:58.795Z,20.63
2018-12-16T18:49:41.313Z,19.33
2018-12-16T18:52:23.059Z,19.33
2018-12-16T18:55:05.898Z,19.97
2018-12-16T18:57:47.811Z,19.70
2018-12-16T19:00:29.495Z,20.07
2018-12-16T19:03:11.171Z,20.73
2018-12-16T19:05:52.775Z,20.03
2018-12-16T19:08:34.736Z,21.27
2018-12-16T19:11:17.700Z,20.20
2018-12-16T19:13:59.224Z,21.23
2018-12-16T19:16:40.955Z,20.07
2018-12-16T19:19:22.896Z,20.60
2018-12-16T19:22:05.104Z,19.40
2018-12-16T19:24:47.485Z,19.27
2018-12-16T19:27:29.247Z,18.10
2018-12-16T19:30:11.043Z,18.53
2018-12-16T19:32:52.495Z,19.80
2018-12-16T19:35:34.215Z,19.33
2018-12-16T19:38:16.689Z,19.60
2018-12-16T19:40:58.522Z,20.87
2018-12-16T19:43:39.759Z,19.03
2018-12-16T19:46:21.292Z,19.43
2018-12-16T19:49:02.469Z,19.60
2018-12-16T19:51:44.435Z,19.43
2018-12-16T19:54:26.988Z,19.77
2018-12-16T19:57:09.179Z,19.20
2018-12-16T19:59:50.625Z,19.07
2018-12-16T20:02:32.233Z,18.13
2018-12-16T20:05:19.329Z,19.60
2018-12-16T20:08:01.053Z,18.67
2018-12-16T20:10:43.030Z,19.23
2018-12-16T20:13:24.744Z,18.37
2018-12-16T20:16:06.440Z,17.10
2018-12-16T20:18:49.960Z,19.87
2018-12-16T20:21:31.598Z,18.40
2018-12-16T20:24:13.867Z,18.40
2018-12-16T20:26:55.698Z,19.00
2018-12-16T20:29:36.974Z,19.40
2018-12-16T20:32:18.936Z,18.17
2018-12-16T20:35:00.916Z,18.37
2018-12-16T20:37:43.380Z,17.50
2018-12-16T20:40:25.273Z,17.97
2018-12-16T20:43:07.169Z,19.00
2018-12-16T20:45:49.439Z,19.63
2018-12-16T20:48:31.215Z,18.03
2018-12-16T20:51:13.033Z,18.40
2018-12-16T20:53:55.543Z,18.20
2018-12-16T20:56:37.065Z,18.37
2018-12-16T20:59:19.264Z,16.90
2018-12-16T21:02:01.056Z,17.93
2018-12-16T21:04:43.329Z,18.83
2018-12-16T21:07:24.816Z,17.17
2018-12-16T21:10:06.974Z,17.90
2018-12-16T21:12:55.056Z,18.50
2018-12-16T21:15:42.430Z,19.50
2018-12-16T21:18:28.171Z,19.20
2018-12-16T21:21:10.755Z,18.03
2018-12-16T21:23:52.718Z,18.10
2018-12-16T21:26:34.054Z,18.60
2018-12-16T21:29:15.886Z,19.47
2018-12-16T21:31:58.101Z,18.93
2018-12-16T21:34:39.520Z,18.13
2018-12-16T21:37:22.063Z,19.13
2018-12-16T21:40:04.396Z,19.00
2018-12-16T21:42:46.194Z,19.10
2018-12-16T21:45:27.893Z,19.03
2018-12-16T21:48:10.411Z,21.23
2018-12-16T21:50:51.889Z,19.93
2018-12-16T21:53:33.356Z,19.57
2018-12-16T21:56:14.871Z,21.27
2018-12-16T21:58:56.330Z,20.07
2018-12-16T22:01:38.395Z,20.33
2018-12-16T22:04:20.631Z,20.40
2018-12-16T22:07:02.576Z,19.43
2018-12-16T22:09:44.751Z,20.60
2018-12-16T22:12:26.061Z,20.37
2018-12-16T22:15:08.652Z,20.13
2018-12-16T22:17:50.449Z,20.33
2018-12-16T22:20:32.208Z,19.17
2018-12-16T22:23:14.027Z,19.97
2018-12-16T22:25:55.651Z,18.70
2018-12-16T22:28:36.888Z,19.70
2018-12-16T22:31:18.622Z,18.83
2018-12-16T22:34:01.073Z,20.00
2018-12-16T22:36:43.507Z,19.60
2018-12-16T22:39:24.890Z,19.60
2018-12-16T22:42:07.999Z,20.13
2018-12-16T22:44:49.645Z,19.53
2018-12-16T22:47:31.861Z,20.47
2018-12-16T22:50:13.469Z,19.97
2018-12-16T22:52:54.936Z,19.73
2018-12-16T22:55:36.524Z,19.57
2018-12-16T22:58:18.348Z,19.90
2018-12-16T23:01:05.632Z,19.93
2018-12-16T23:03:47.785Z,20.30
2018-12-16T23:06:29.077Z,20.67
2018-12-16T23:09:10.754Z,19.57
2018-12-16T23:11:53.766Z,20.60
2018-12-16T23:14:35.935Z,20.90
2018-12-16T23:17:17.219Z,20.63
2018-12-16T23:20:04.222Z,19.57
2018-12-16T23:22:45.715Z,18.83
2018-12-16T23:25:27.926Z,19.23
2018-12-16T23:28:10.332Z,20.77
2018-12-16T23:30:52.423Z,20.73
2018-12-16T23:33:33.657Z,20.40
2018-12-16T23:36:15.513Z,19.90
2018-12-16T23:38:56.894Z,20.60
2018-12-16T23:41:38.475Z,20.20
2018-12-16T23:44:19.828Z,20.17
2018-12-16T23:47:01.275Z,19.10
2018-12-16T23:49:42.547Z,19.33
2018-12-16T23:52:23.895Z,20.10
2018-12-16T23:55:05.946Z,20.47
2018-12-16T23:57:47.359Z,19.70
